Time;durP1;ratioP1;P1;durP2;ratioP2;P2;SDS_P1;SDS_P2;PMS_P1;PMS_P2;Temp;Humidity;BMP_temperature;BMP_pressure;BME280_temperature;BME280_humidity;BME280_pressure;Samples;Min_cycle;Max_cycle;Signal;HPM_P1;HPM_P2
2022/11/23 00:01:18;;;;;;;20.48;11.27;;;7.30;99.90;;;;;;4959234;28;20046;-86
2022/11/23 00:03:45;;;;;;;24.83;12.65;;;7.20;99.90;;;;;;4982378;28;20053;-86
2022/11/23 00:06:11;;;;;;;21.92;13.70;;;7.30;99.90;;;;;;4944120;28;20129;-86
2022/11/23 00:08:37;;;;;;;19.13;11.98;;;7.50;99.90;;;;;;4944172;28;20122;-86
2022/11/23 00:11:03;;;;;;;21.30;10.85;;;7.30;99.90;;;;;;4975872;28;20191;-86
2022/11/23 00:13:29;;;;;;;20.25;11.57;;;7.30;99.90;;;;;;4973654;28;20450;-86
2022/11/23 00:15:55;;;;;;;20.98;11.88;;;7.30;99.90;;;;;;4968424;28;20403;-85
2022/11/23 00:18:21;;;;;;;19.10;11.77;;;7.30;99.90;;;;;;4959325;28;20027;-86
2022/11/23 00:20:46;;;;;;;20.30;11.30;;;8.10;99.90;;;;;;4976017;28;20368;-85
2022/11/23 00:23:12;;;;;;;21.00;11.17;;;8.40;99.90;;;;;;4970871;28;20121;-86
2022/11/23 00:25:38;;;;;;;22.02;11.68;;;7.40;99.90;;;;;;4955122;28;20281;-86
2022/11/23 00:28:04;;;;;;;23.37;11.63;;;7.60;99.90;;;;;;4944594;28;20034;-86
2022/11/23 00:30:29;;;;;;;19.70;11.45;;;7.40;99.90;;;;;;4954549;28;20302;-86
2022/11/23 00:32:55;;;;;;;22.90;11.90;;;7.30;99.90;;;;;;4952652;28;20078;-87
2022/11/23 00:35:22;;;;;;;23.45;11.20;;;7.40;99.90;;;;;;4975465;28;20506;-86
2022/11/23 00:37:47;;;;;;;18.73;10.43;;;7.40;99.90;;;;;;4959808;28;20038;-87
2022/11/23 00:40:13;;;;;;;19.48;11.68;;;7.40;99.90;;;;;;4957294;28;20038;-86
2022/11/23 00:42:39;;;;;;;20.00;9.98;;;7.40;99.90;;;;;;4968281;28;20038;-86
2022/11/23 00:45:05;;;;;;;18.20;10.17;;;7.70;99.90;;;;;;4970866;28;20101;-86
2022/11/23 00:47:31;;;;;;;19.30;11.23;;;7.50;99.90;;;;;;4970289;28;20050;-86
2022/11/23 00:49:56;;;;;;;17.20;10.07;;;7.50;99.90;;;;;;4957127;28;20034;-86
2022/11/23 00:52:22;;;;;;;17.58;10.02;;;7.50;99.90;;;;;;4986442;28;20547;-86
2022/11/23 00:54:48;;;;;;;21.30;11.88;;;7.50;99.90;;;;;;4974152;28;20043;-85
2022/11/23 00:57:14;;;;;;;20.80;9.83;;;7.60;99.90;;;;;;4970981;28;20065;-86
2022/11/23 00:59:40;;;;;;;15.13;8.83;;;7.80;99.90;;;;;;4952196;28;20291;-86
2022/11/23 01:02:05;;;;;;;17.45;10.32;;;7.50;99.90;;;;;;4982305;28;20042;-86
2022/11/23 01:04:31;;;;;;;16.77;10.50;;;7.50;99.90;;;;;;4966219;28;20043;-85
2022/11/23 01:06:57;;;;;;;18.37;14.23;;;7.60;99.90;;;;;;4966252;28;20281;-86
2022/11/23 01:09:25;;;;;;;25.07;10.67;;;7.50;99.90;;;;;;4967727;28;20097;-86
2022/11/23 01:11:52;;;;;;;18.63;10.15;;;7.60;99.90;;;;;;4967854;28;20316;-86
2022/11/23 01:14:19;;;;;;;17.00;9.43;;;7.60;99.90;;;;;;4986197;28;20039;-86
2022/11/23 01:16:45;;;;;;;21.13;11.02;;;7.60;99.90;;;;;;4966381;28;20387;-86
2022/11/23 01:19:15;;;;;;;19.80;11.05;;;7.60;99.90;;;;;;4970237;28;20057;-86
2022/11/23 01:21:41;;;;;;;16.13;9.50;;;7.60;99.90;;;;;;4990902;28;20050;-87
2022/11/23 01:24:18;;;;;;;18.48;9.60;;;7.70;99.90;;;;;;4968073;28;20058;-87
2022/11/23 01:26:44;;;;;;;19.20;13.52;;;7.70;99.90;;;;;;4979109;28;20049;-86
2022/11/23 01:29:11;;;;;;;19.30;9.80;;;7.70;99.90;;;;;;4972849;28;20042;-86
2022/11/23 01:31:36;;;;;;;;;;;7.60;99.90;;;;;;4968691;28;20071;-87
2022/11/23 01:34:03;;;;;;;18.40;9.60;;;7.70;99.90;;;;;;4975633;28;19918;-87
2022/11/23 01:36:30;;;;;;;;;;;7.80;99.90;;;;;;4967661;28;20070;-87
2022/11/23 01:38:57;;;;;;;15.77;8.33;;;7.70;99.90;;;;;;4981700;28;19921;-87
2022/11/23 01:41:25;;;;;;;19.63;8.98;;;8.30;99.90;;;;;;4969878;28;20281;-87
2022/11/23 01:43:52;;;;;;;16.55;9.27;;;8.80;99.90;;;;;;4982206;28;20046;-86
2022/11/23 01:46:18;;;;;;;19.05;9.13;;;7.70;99.90;;;;;;4984563;28;20058;-87
2022/11/23 01:49:05;;;;;;;22.10;10.10;;;7.80;99.90;;;;;;4965961;28;20136;-87
2022/11/23 01:51:36;;;;;;;15.95;8.50;;;7.80;99.90;;;;;;4981469;28;20495;-86
2022/11/23 01:54:07;;;;;;;18.88;9.77;;;7.90;99.90;;;;;;4970528;28;20392;-87
2022/11/23 01:56:42;;;;;;;20.42;10.38;;;7.80;99.90;;;;;;4981327;28;20038;-86
2022/11/23 01:59:11;;;;;;;20.67;10.05;;;7.90;99.90;;;;;;4988813;28;20034;-86
2022/11/23 02:01:37;;;;;;;19.45;9.63;;;7.80;99.90;;;;;;4991002;28;20034;-86
2022/11/23 02:04:05;;;;;;;19.95;9.88;;;7.80;99.90;;;;;;4965784;28;20045;-87
2022/11/23 02:06:32;;;;;;;16.70;9.40;;;7.80;99.90;;;;;;4964709;28;20442;-86
2022/11/23 02:08:59;;;;;;;19.40;9.85;;;7.90;99.90;;;;;;4949114;28;20047;-86
2022/11/23 02:11:24;;;;;;;;;;;7.80;99.90;;;;;;4967885;28;20045;-86
2022/11/23 02:13:50;;;;;;;17.80;10.30;;;7.80;99.90;;;;;;4971996;28;20349;-86
2022/11/23 02:16:17;;;;;;;15.98;9.70;;;7.80;99.90;;;;;;4950658;28;20454;-86
2022/11/23 02:18:45;;;;;;;18.77;9.93;;;7.80;99.90;;;;;;4966968;28;20054;-86
2022/11/23 02:21:12;;;;;;;15.63;8.90;;;7.80;99.90;;;;;;4984069;28;20414;-86
2022/11/23 02:23:58;;;;;;;;;;;7.80;99.90;;;;;;4980426;28;20038;-86
2022/11/23 02:26:33;;;;;;;19.23;9.65;;;8.60;99.90;;;;;;4970977;28;19918;-86
2022/11/23 02:29:04;;;;;;;21.17;15.38;;;7.80;99.90;;;;;;4968651;28;20038;-86
2022/11/23 02:31:31;;;;;;;20.05;10.73;;;7.80;99.90;;;;;;4993470;28;20035;-86
2022/11/23 02:33:56;;;;;;;18.02;10.48;;;7.80;99.90;;;;;;4982234;28;20073;-86
2022/11/23 02:36:42;;;;;;;19.73;9.23;;;7.80;99.90;;;;;;4973306;28;20038;-86
2022/11/23 02:39:26;;;;;;;21.45;11.02;;;7.80;99.90;;;;;;4968919;28;20034;-86
2022/11/23 02:41:53;;;;;;;22.67;16.52;;;7.80;99.90;;;;;;4964644;28;20042;-86
2022/11/23 02:44:41;;;;;;;19.88;11.05;;;7.80;99.90;;;;;;4994334;28;20073;-87
2022/11/23 02:47:08;;;;;;;22.42;10.70;;;7.90;99.90;;;;;;4968870;28;20041;-85
2022/11/23 02:49:34;;;;;;;21.55;10.18;;;8.30;99.90;;;;;;4954374;28;20039;-87
2022/11/23 02:52:00;;;;;;;20.17;10.40;;;7.90;99.90;;;;;;4956718;28;20101;-87
2022/11/23 02:54:26;;;;;;;22.67;11.38;;;7.80;99.90;;;;;;4993721;28;20050;-87
2022/11/23 02:56:52;;;;;;;17.75;9.07;;;8.10;99.90;;;;;;4967703;28;20042;-86
2022/11/23 02:59:18;;;;;;;20.83;11.57;;;7.90;99.90;;;;;;4981840;28;20035;-86
2022/11/23 03:01:44;;;;;;;20.42;9.90;;;7.90;99.90;;;;;;4967777;28;20567;-87
2022/11/23 03:04:09;;;;;;;18.70;9.07;;;7.90;99.90;;;;;;4970427;28;20430;-87
2022/11/23 03:06:36;;;;;;;17.83;9.53;;;7.90;99.90;;;;;;4970223;28;20133;-87
2022/11/23 03:09:02;;;;;;;;;;;7.80;99.90;;;;;;4994307;28;20278;-87
2022/11/23 03:11:27;;;;;;;17.67;8.70;;;7.90;99.90;;;;;;4965535;28;19975;-87
2022/11/23 03:13:53;;;;;;;19.23;8.95;;;7.90;99.90;;;;;;4993573;28;20042;-87
2022/11/23 03:16:19;;;;;;;19.52;8.88;;;7.80;99.90;;;;;;4970502;28;20058;-87
2022/11/23 03:18:45;;;;;;;18.58;9.63;;;7.90;99.90;;;;;;4972634;28;20053;-87
2022/11/23 03:21:11;;;;;;;20.17;9.97;;;7.90;99.90;;;;;;4983968;28;20042;-87
2022/11/23 03:23:37;;;;;;;18.17;9.52;;;7.80;99.90;;;;;;4972545;28;20038;-87
2022/11/23 03:26:03;;;;;;;16.50;9.20;;;7.90;99.90;;;;;;4950064;28;20525;-87
2022/11/23 03:28:29;;;;;;;20.95;9.93;;;8.10;99.90;;;;;;4988661;28;20145;-86
2022/11/23 03:30:55;;;;;;;20.07;9.97;;;7.90;99.90;;;;;;4969233;28;20086;-85
2022/11/23 03:33:21;;;;;;;23.55;10.40;;;8.00;99.90;;;;;;4961790;28;20282;-85
2022/11/23 03:35:47;;;;;;;16.65;9.00;;;8.00;99.90;;;;;;4953398;28;20030;-85
2022/11/23 03:38:13;;;;;;;17.88;9.27;;;8.00;99.90;;;;;;4992375;28;20041;-85
2022/11/23 03:40:39;;;;;;;22.15;10.27;;;8.00;99.90;;;;;;4971826;28;20042;-86
2022/11/23 03:43:05;;;;;;;17.35;9.13;;;8.00;99.90;;;;;;4972516;28;20046;-85
2022/11/23 03:45:31;;;;;;;19.58;8.60;;;7.90;99.90;;;;;;4967042;28;20042;-85
2022/11/23 03:47:56;;;;;;;18.90;10.47;;;8.00;99.90;;;;;;4971481;28;20042;-86
2022/11/23 03:50:22;;;;;;;26.40;10.83;;;7.90;99.90;;;;;;4969212;28;20096;-86
2022/11/23 03:52:48;;;;;;;25.50;11.60;;;7.90;99.90;;;;;;4963883;28;20294;-86
2022/11/23 03:55:15;;;;;;;23.42;11.45;;;7.90;99.90;;;;;;4966957;28;20042;-86
2022/11/23 03:57:41;;;;;;;24.55;11.57;;;7.90;99.90;;;;;;4985324;28;20057;-86
2022/11/23 04:00:07;;;;;;;25.52;11.48;;;7.90;99.90;;;;;;4955419;28;20070;-86
2022/11/23 04:02:34;;;;;;;26.75;12.40;;;7.90;99.90;;;;;;4969430;28;20391;-86
2022/11/23 04:05:00;;;;;;;23.55;12.05;;;7.90;99.90;;;;;;4956263;28;20611;-86
2022/11/23 04:07:26;;;;;;;23.92;11.77;;;7.90;99.90;;;;;;4946363;28;20038;-86
2022/11/23 04:09:52;;;;;;;28.55;11.98;;;7.90;99.90;;;;;;4955380;28;20130;-86
2022/11/23 04:12:18;;;;;;;29.57;11.13;;;7.90;99.90;;;;;;4975936;28;20122;-86
2022/11/23 04:14:43;;;;;;;26.05;10.68;;;7.90;99.90;;;;;;4968856;28;20279;-86
2022/11/23 04:17:09;;;;;;;32.00;12.27;;;7.90;99.90;;;;;;4971950;28;20486;-86
2022/11/23 04:19:35;;;;;;;26.58;13.13;;;8.00;99.90;;;;;;4983855;28;20335;-86
2022/11/23 04:22:00;;;;;;;27.17;11.37;;;7.90;99.90;;;;;;4970708;28;20050;-86
2022/11/23 04:24:26;;;;;;;29.65;12.88;;;8.00;99.90;;;;;;4968774;28;20410;-85
2022/11/23 04:26:52;;;;;;;29.20;12.67;;;7.90;99.90;;;;;;4958769;28;20137;-86
2022/11/23 04:29:17;;;;;;;30.20;12.75;;;8.50;99.90;;;;;;4955318;28;20042;-87
2022/11/23 04:31:43;;;;;;;29.13;12.85;;;8.00;99.90;;;;;;4970503;28;20046;-86
2022/11/23 04:34:09;;;;;;;34.03;14.25;;;7.90;99.90;;;;;;4992144;28;20398;-86
2022/11/23 04:36:35;;;;;;;27.27;12.57;;;7.90;99.90;;;;;;4953641;28;20045;-86
2022/11/23 04:39:02;;;;;;;32.28;13.38;;;8.10;99.90;;;;;;4966515;28;20170;-86
2022/11/23 04:41:28;;;;;;;32.85;14.25;;;7.90;99.90;;;;;;4972910;28;20111;-85
2022/11/23 04:43:54;;;;;;;33.28;15.23;;;7.80;99.90;;;;;;4964654;28;20126;-86
2022/11/23 04:46:20;;;;;;;29.25;14.48;;;7.80;99.90;;;;;;4949924;28;20038;-86
2022/11/23 04:48:46;;;;;;;35.40;12.82;;;7.90;99.90;;;;;;4984126;28;20053;-85
2022/11/23 04:51:12;;;;;;;29.60;13.43;;;7.80;99.90;;;;;;4954192;28;20042;-86
2022/11/23 04:53:38;;;;;;;33.90;15.30;;;7.90;99.90;;;;;;4998782;28;20062;-86
2022/11/23 04:56:04;;;;;;;34.33;13.88;;;7.80;99.90;;;;;;4975674;28;20597;-86
2022/11/23 04:58:29;;;;;;;28.95;14.07;;;7.90;99.90;;;;;;4977177;28;20398;-86
2022/11/23 05:00:57;;;;;;;29.40;13.33;;;8.40;99.90;;;;;;4941952;28;20065;-86
2022/11/23 05:03:22;;;;;;;32.83;15.13;;;8.20;99.90;;;;;;4983998;28;20290;-86
2022/11/23 05:05:48;;;;;;;28.43;13.53;;;7.80;99.90;;;;;;4981413;28;20458;-86
2022/11/23 05:08:14;;;;;;;31.17;14.37;;;7.80;99.90;;;;;;4968128;28;20314;-86
2022/11/23 05:10:39;;;;;;;33.92;14.77;;;7.90;99.90;;;;;;4965873;28;20096;-86
2022/11/23 05:13:05;;;;;;;37.13;14.40;;;7.90;99.90;;;;;;4944057;28;20042;-85
2022/11/23 05:15:31;;;;;;;36.67;15.57;;;7.80;99.90;;;;;;4970730;28;20378;-86
2022/11/23 05:18:09;;;;;;;31.27;14.88;;;7.80;99.90;;;;;;4952747;28;20088;-87
2022/11/23 05:20:35;;;;;;;38.22;15.55;;;7.80;99.90;;;;;;4970841;28;20058;-87
2022/11/23 05:23:01;;;;;;;35.75;14.82;;;7.90;99.90;;;;;;4967737;28;20065;-86
2022/11/23 05:25:26;;;;;;;34.78;14.68;;;7.90;99.90;;;;;;4965837;28;20490;-86
2022/11/23 05:27:52;;;;;;;30.93;15.13;;;8.10;99.90;;;;;;4941034;28;20046;-87
2022/11/23 05:30:18;;;;;;;31.45;14.88;;;8.00;99.90;;;;;;4970185;28;20393;-86
2022/11/23 05:32:44;;;;;;;36.10;16.08;;;7.90;99.90;;;;;;4978937;28;20118;-86
2022/11/23 05:35:11;;;;;;;33.33;15.20;;;8.00;99.90;;;;;;4978841;28;20046;-85
2022/11/23 05:37:37;;;;;;;37.40;14.48;;;8.00;99.90;;;;;;4974963;28;20490;-86
2022/11/23 05:40:04;;;;;;;32.67;15.88;;;8.00;99.90;;;;;;4970283;28;20487;-87
2022/11/23 05:42:29;;;;;;;;;;;8.00;99.90;;;;;;4964071;28;20038;-87
2022/11/23 05:44:55;;;;;;;32.42;15.68;;;8.00;99.90;;;;;;4975116;28;20366;-85
2022/11/23 05:47:21;;;;;;;29.90;14.87;;;8.00;99.90;;;;;;4970525;28;20410;-88
2022/11/23 05:49:46;;;;;;;33.70;14.45;;;8.50;99.90;;;;;;4970403;28;20454;-88
2022/11/23 05:52:12;;;;;;;34.87;15.77;;;8.00;99.90;;;;;;4953982;28;20082;-91
2022/11/23 05:54:38;;;;;;;38.72;16.40;;;8.10;99.90;;;;;;4943946;28;20293;-93
2022/11/23 05:57:04;;;;;;;36.42;16.10;;;7.70;99.90;;;;;;4966955;28;20042;-93
2022/11/23 05:59:29;;;;;;;34.50;16.60;;;8.00;99.90;;;;;;4967596;28;20065;-92
2022/11/23 06:01:55;;;;;;;30.77;14.80;;;9.10;99.90;;;;;;4966591;28;20286;-92
2022/11/23 06:04:21;;;;;;;37.83;14.57;;;8.00;99.90;;;;;;4966997;28;20046;-92
2022/11/23 06:06:47;;;;;;;31.83;14.45;;;8.30;99.90;;;;;;4965592;28;20043;-92
2022/11/23 06:09:13;;;;;;;34.95;15.02;;;;;;;;;;4965416;28;20039;-93
2022/11/23 06:11:39;;;;;;;25.45;12.85;;;8.00;99.90;;;;;;4967500;28;20070;-93
2022/11/23 06:14:04;;;;;;;28.63;14.48;;;8.10;99.90;;;;;;4967181;28;20105;-93
2022/11/23 06:16:30;;;;;;;31.63;13.70;;;9.30;99.90;;;;;;4967219;28;20403;-93
2022/11/23 06:18:56;;;;;;;36.63;13.80;;;7.10;99.90;;;;;;4967024;28;20286;-94
2022/11/23 06:21:22;;;;;;;29.20;13.50;;;8.00;99.90;;;;;;4966726;28;20054;-93
2022/11/23 06:23:48;;;;;;;26.67;11.98;;;8.00;99.90;;;;;;4966508;28;20090;-93
2022/11/23 06:26:14;;;;;;;23.17;10.82;;;8.20;99.90;;;;;;4967090;28;20481;-93
2022/11/23 06:28:40;;;;;;;23.48;12.30;;;7.90;99.90;;;;;;4967582;28;20133;-93
2022/11/23 06:31:06;;;;;;;26.52;11.25;;;8.00;99.90;;;;;;4967061;28;20046;-93
2022/11/23 06:33:33;;;;;;;26.25;10.48;;;8.00;99.90;;;;;;4967076;28;20131;-93
2022/11/23 06:36:00;;;;;;;;;;;8.10;99.90;;;;;;4968507;28;20119;-93
2022/11/23 06:38:26;;;;;;;24.02;10.98;;;8.00;99.90;;;;;;4967725;28;19933;-93
2022/11/23 06:40:52;;;;;;;;;;;8.50;99.90;;;;;;4969114;28;20197;-91
2022/11/23 06:43:17;;;;;;;21.90;10.73;;;8.00;99.90;;;;;;4971559;28;19917;-92
2022/11/23 06:45:43;;;;;;;22.67;10.40;;;9.10;99.90;;;;;;5002755;28;20379;-93
2022/11/23 06:48:09;;;;;;;26.80;11.23;;;7.90;99.90;;;;;;5003799;28;20086;-94
2022/11/23 06:50:35;;;;;;;20.67;9.00;;;7.90;99.90;;;;;;4971268;28;20049;-94
2022/11/23 06:53:01;;;;;;;23.90;11.18;;;7.90;99.90;;;;;;4970626;28;20395;-94
2022/11/23 06:55:27;;;;;;;24.48;10.15;;;7.90;99.90;;;;;;4969136;28;20074;-92
2022/11/23 06:57:55;;;;;;;19.40;10.43;;;8.70;99.90;;;;;;4969961;28;20054;-94
2022/11/23 07:00:20;;;;;;;18.95;9.10;;;8.00;99.90;;;;;;5001969;28;20053;-92
2022/11/23 07:02:54;;;;;;;20.05;10.18;;;9.20;99.90;;;;;;4985760;28;20471;-93
2022/11/23 07:05:20;;;;;;;20.58;9.80;;;7.90;99.90;;;;;;4985328;28;20394;-92
2022/11/23 07:07:46;;;;;;;;;;;8.00;99.90;;;;;;4982083;28;20505;-93
2022/11/23 07:10:15;;;;;;;19.45;9.23;;;7.90;99.90;;;;;;4998476;28;20008;-93
2022/11/23 07:12:41;;;;;;;15.75;8.32;;;9.10;99.90;;;;;;4981861;28;20129;-93
2022/11/23 07:15:07;;;;;;;17.30;8.90;;;8.50;99.90;;;;;;4998647;28;20085;-93
2022/11/23 07:17:38;;;;;;;16.33;8.60;;;7.80;99.90;;;;;;4983236;28;20042;-93
2022/11/23 07:20:05;;;;;;;17.98;8.18;;;7.90;99.90;;;;;;4982667;28;20138;-93
2022/11/23 07:22:30;;;;;;;;;;;7.10;99.90;;;;;;4981441;28;20045;-93
2022/11/23 07:24:56;;;;;;;14.85;7.47;;;7.90;99.90;;;;;;4997186;28;19918;-85
2022/11/23 07:27:22;;;;;;;19.73;7.10;;;7.90;99.90;;;;;;4955488;28;20042;-76
2022/11/23 07:29:48;;;;;;;17.38;7.03;;;7.90;99.90;;;;;;4958445;28;20042;-77
2022/11/23 07:32:14;;;;;;;12.17;5.63;;;7.90;99.90;;;;;;4952792;28;20506;-76
2022/11/23 07:34:40;;;;;;;17.20;7.50;;;7.90;99.90;;;;;;4960765;28;20650;-77
2022/11/23 07:37:06;;;;;;;14.53;7.23;;;7.90;99.90;;;;;;4968591;28;20030;-75
2022/11/23 07:39:32;;;;;;;15.52;7.15;;;7.90;99.90;;;;;;4978729;28;20045;-75
2022/11/23 07:41:57;;;;;;;18.00;7.37;;;7.90;99.90;;;;;;4988913;28;20042;-76
2022/11/23 07:44:23;;;;;;;15.30;6.65;;;7.90;99.90;;;;;;4963752;28;20136;-76
2022/11/23 07:46:52;;;;;;;21.23;6.73;;;8.10;99.90;;;;;;4963273;28;20108;-75
2022/11/23 07:49:18;;;;;;;17.02;7.20;;;7.90;99.90;;;;;;4965701;28;20298;-76
2022/11/23 07:51:43;;;;;;;14.77;6.83;;;7.90;99.90;;;;;;4983009;28;20058;-76
2022/11/23 07:54:09;;;;;;;20.97;6.73;;;7.90;99.90;;;;;;4970235;28;20459;-76
2022/11/23 07:56:35;;;;;;;15.90;6.70;;;7.90;99.90;;;;;;4958146;28;20285;-76
2022/11/23 07:59:00;;;;;;;9.60;5.47;;;7.90;99.90;;;;;;4960254;28;20290;-76
2022/11/23 08:01:26;;;;;;;15.73;6.65;;;7.90;99.90;;;;;;4962175;28;20410;-76
2022/11/23 08:03:52;;;;;;;16.20;6.40;;;7.90;99.90;;;;;;4954143;28;20125;-76
2022/11/23 08:06:18;;;;;;;15.77;7.83;;;7.90;99.90;;;;;;4970470;28;21660;-79
2022/11/23 08:08:43;;;;;;;15.80;7.43;;;7.90;99.90;;;;;;4979333;28;20125;-78
2022/11/23 08:11:09;;;;;;;13.50;6.43;;;7.90;99.90;;;;;;4969953;28;20038;-78
2022/11/23 08:13:38;;;;;;;15.77;6.43;;;7.90;99.90;;;;;;4986751;28;20045;-77
2022/11/23 08:16:04;;;;;;;12.52;5.57;;;7.90;99.90;;;;;;4967880;28;20129;-77
2022/11/23 08:18:30;;;;;;;15.07;5.40;;;7.90;99.90;;;;;;4988860;28;20122;-77
2022/11/23 08:20:59;;;;;;;13.25;5.70;;;8.00;99.90;;;;;;4982624;28;20085;-78
2022/11/23 08:23:25;;;;;;;15.35;5.97;;;8.00;99.90;;;;;;4962031;28;20505;-77
2022/11/23 08:25:51;;;;;;;16.20;5.32;;;8.00;99.90;;;;;;4952145;28;20046;-77
2022/11/23 08:28:17;;;;;;;12.93;5.28;;;8.00;99.90;;;;;;4983714;28;20486;-78
2022/11/23 08:30:44;;;;;;;13.95;5.57;;;8.00;99.90;;;;;;4986902;28;20046;-77
2022/11/23 08:33:11;;;;;;;;;;;8.10;99.90;;;;;;4966638;28;20089;-78
2022/11/23 08:35:38;;;;;;;15.10;6.00;;;8.00;99.90;;;;;;4979643;28;19917;-78
2022/11/23 08:38:04;;;;;;;16.33;5.55;;;8.10;99.90;;;;;;4981213;28;20045;-77
2022/11/23 08:40:30;;;;;;;;;;;8.00;99.90;;;;;;4985174;28;20042;-78
2022/11/23 08:42:56;;;;;;;13.55;4.65;;;8.10;99.90;;;;;;4965884;28;20366;-83
2022/11/23 08:45:21;;;;;;;10.90;4.90;;;8.10;99.90;;;;;;4977611;28;20065;-84
2022/11/23 08:47:48;;;;;;;11.13;5.05;;;8.10;99.90;;;;;;4978304;28;20550;-83
2022/11/23 08:50:14;;;;;;;16.02;5.22;;;8.10;99.90;;;;;;4968040;28;20046;-83
2022/11/23 08:52:39;;;;;;;19.40;5.57;;;8.20;99.90;;;;;;4955390;28;20146;-83
2022/11/23 08:55:05;;;;;;;13.95;5.07;;;8.20;99.90;;;;;;4963330;28;20058;-83
2022/11/23 08:57:31;;;;;;;11.73;4.70;;;8.20;99.90;;;;;;4957977;28;20041;-83
2022/11/23 08:59:57;;;;;;;11.45;4.47;;;8.20;99.90;;;;;;4976196;28;20082;-86
2022/11/23 09:02:23;;;;;;;12.18;4.75;;;8.20;99.90;;;;;;4993359;28;20045;-84
2022/11/23 09:04:48;;;;;;;14.32;5.05;;;8.50;99.90;;;;;;4994086;28;20056;-84
2022/11/23 09:07:14;;;;;;;10.50;4.93;;;8.30;99.90;;;;;;4968905;28;20146;-85
2022/11/23 09:09:40;;;;;;;14.70;5.75;;;8.30;99.90;;;;;;4974615;28;20066;-85
2022/11/23 09:12:06;;;;;;;13.13;4.80;;;8.30;99.90;;;;;;4958495;28;20078;-85
2022/11/23 09:14:31;;;;;;;11.98;4.90;;;8.40;99.90;;;;;;4974913;28;20046;-86
2022/11/23 09:17:00;;;;;;;10.57;4.55;;;8.40;99.90;;;;;;4958805;28;20546;-85
2022/11/23 09:19:26;;;;;;;10.73;4.85;;;8.50;99.90;;;;;;4975943;28;20437;-84
2022/11/23 09:21:52;;;;;;;17.13;4.90;;;8.50;99.90;;;;;;4977260;28;20077;-84
2022/11/23 09:24:18;;;;;;;;;;;8.60;99.90;;;;;;4951274;28;20126;-84
2022/11/23 09:26:44;;;;;;;11.65;4.85;;;8.60;99.90;;;;;;4959279;28;19989;-84
2022/11/23 09:29:10;;;;;;;13.10;4.40;;;9.70;99.90;;;;;;4974152;28;20411;-85
2022/11/23 09:31:36;;;;;;;12.43;4.22;;;8.70;99.90;;;;;;4973329;28;20042;-85
2022/11/23 09:34:03;;;;;;;11.70;4.32;;;9.40;99.90;;;;;;4993781;28;20070;-85
2022/11/23 09:36:29;;;;;;;15.63;5.47;;;9.00;99.90;;;;;;4977339;28;20042;-85
2022/11/23 09:38:54;;;;;;;9.77;5.18;;;9.10;99.90;;;;;;4993803;28;20096;-85
2022/11/23 09:41:32;;;;;;;8.32;3.78;;;9.10;99.90;;;;;;4993345;28;20061;-85
2022/11/23 09:44:06;;;;;;;11.48;4.45;;;9.20;99.90;;;;;;4993282;28;20125;-85
2022/11/23 09:46:54;;;;;;;10.73;4.30;;;9.20;99.90;;;;;;4993285;28;20068;-84
2022/11/23 09:49:22;;;;;;;10.55;4.15;;;9.10;99.90;;;;;;4960556;28;20526;-85
2022/11/23 09:51:53;;;;;;;9.85;3.75;;;9.10;99.90;;;;;;4971783;28;20113;-84
2022/11/23 09:54:41;;;;;;;7.45;3.10;;;9.10;99.90;;;;;;4970129;28;20053;-85
2022/11/23 09:57:14;;;;;;;11.90;3.63;;;9.10;99.90;;;;;;4985593;28;20038;-85
2022/11/23 09:59:43;;;;;;;12.57;3.72;;;9.00;99.90;;;;;;4970714;28;20038;-85
2022/11/23 10:02:24;;;;;;;10.32;3.47;;;9.00;99.90;;;;;;4966294;28;20042;-85
2022/11/23 10:04:52;;;;;;;13.98;3.88;;;8.90;99.90;;;;;;4979975;28;20058;-85
2022/11/23 10:07:23;;;;;;;7.65;2.92;;;9.00;99.90;;;;;;4991697;28;20401;-85
2022/11/23 10:10:20;;;;;;;8.23;3.55;;;9.00;99.90;;;;;;4976191;28;20169;-85
2022/11/23 10:13:25;;;;;;;11.73;3.97;;;9.00;99.90;;;;;;4988901;28;20125;-85
2022/11/23 10:16:13;;;;;;;14.50;3.75;;;8.90;99.90;;;;;;4969104;28;20034;-86
2022/11/23 10:19:00;;;;;;;9.38;3.47;;;8.90;99.90;;;;;;4975900;28;20035;-85
2022/11/23 10:21:47;;;;;;;13.65;3.78;;;9.00;99.90;;;;;;4982386;28;20077;-85
2022/11/23 10:24:20;;;;;;;8.73;3.42;;;8.90;99.90;;;;;;4992230;28;20053;-85
2022/11/23 10:26:49;;;;;;;11.63;4.00;;;8.90;99.90;;;;;;4966248;28;20053;-85
2022/11/23 10:29:24;;;;;;;9.40;3.95;;;8.90;99.90;;;;;;4964940;28;20121;-85
2022/11/23 10:31:51;;;;;;;11.55;3.70;;;8.90;99.90;;;;;;4992647;28;20078;-85
2022/11/23 10:34:39;;;;;;;10.00;4.07;;;9.00;99.90;;;;;;4981577;28;20069;-85
2022/11/23 10:37:13;;;;;;;9.13;3.60;;;9.00;99.90;;;;;;4986683;28;20073;-85
2022/11/23 10:39:39;;;;;;;10.15;3.13;;;9.00;99.90;;;;;;4992045;28;20084;-85
2022/11/23 10:42:18;;;;;;;13.98;3.47;;;9.00;99.90;;;;;;4972057;28;20046;-85
2022/11/23 10:44:46;;;;;;;8.27;3.50;;;9.30;99.90;;;;;;4972340;28;20035;-85
2022/11/23 10:47:33;;;;;;;11.55;3.08;;;8.90;99.90;;;;;;4986277;28;20070;-85
2022/11/23 10:49:59;;;;;;;14.90;3.42;;;8.90;99.90;;;;;;4987337;28;20495;-85
2022/11/23 10:52:32;;;;;;;11.63;3.10;;;8.80;99.90;;;;;;4985610;28;20053;-85
2022/11/23 10:55:00;;;;;;;10.05;2.92;;;8.80;99.90;;;;;;4993973;28;20503;-87
2022/11/23 10:57:41;;;;;;;11.93;3.15;;;8.80;99.90;;;;;;4995681;28;20038;-87
2022/11/23 11:00:11;;;;;;;11.10;3.13;;;8.80;99.90;;;;;;4993420;28;20042;-85
2022/11/23 11:02:53;;;;;;;11.98;3.10;;;8.90;99.90;;;;;;4994407;28;20050;-86
2022/11/23 11:05:35;;;;;;;16.20;3.53;;;8.90;99.90;;;;;;4991317;28;20109;-84
2022/11/23 11:08:31;;;;;;;10.52;3.08;;;8.80;99.90;;;;;;4984126;28;20144;-87
2022/11/23 11:11:19;;;;;;;12.55;3.10;;;9.00;99.90;;;;;;4960744;28;20054;-84
2022/11/23 11:13:46;;;;;;;11.60;3.10;;;9.00;99.90;;;;;;4985558;28;20038;-85
2022/11/23 11:16:30;;;;;;;10.88;3.00;;;9.10;99.90;;;;;;4995502;28;20069;-85
2022/11/23 11:18:56;;;;;;;14.05;2.90;;;9.20;99.90;;;;;;4981208;28;20038;-86
2022/11/23 11:21:34;;;;;;;13.73;3.42;;;9.20;99.90;;;;;;4979422;28;20050;-85
2022/11/23 11:24:12;;;;;;;9.07;3.05;;;9.50;99.90;;;;;;4994000;28;20101;-85
2022/11/23 11:26:48;;;;;;;15.38;3.83;;;9.60;99.90;;;;;;4987693;28;20072;-85
2022/11/23 11:29:32;;;;;;;8.00;2.63;;;10.10;99.90;;;;;;4973154;28;20453;-84
2022/11/23 11:32:33;;;;;;;9.52;2.80;;;10.60;99.90;;;;;;4978773;28;20310;-85
2022/11/23 11:35:17;;;;;;;9.45;2.30;;;10.80;99.90;;;;;;4988153;28;20053;-85
2022/11/23 11:37:46;;;;;;;10.63;2.28;;;11.10;99.90;;;;;;4972959;28;20042;-85
2022/11/23 11:40:36;;;;;;;11.13;2.22;;;11.80;99.90;;;;;;4968237;28;20122;-85
2022/11/23 11:43:11;;;;;;;12.38;2.50;;;12.10;99.90;;;;;;4985707;28;20038;-80
2022/11/23 11:45:43;;;;;;;9.35;2.90;;;11.70;99.90;;;;;;4979251;28;20042;-81
2022/11/23 11:48:15;;;;;;;8.95;2.58;;;11.70;99.90;;;;;;4968865;28;20054;-81
2022/11/23 11:50:51;;;;;;;14.43;2.90;;;11.80;99.90;;;;;;4989066;28;20113;-81
2022/11/23 11:53:23;;;;;;;8.10;2.20;;;12.20;99.90;;;;;;4984382;28;20051;-81
2022/11/23 11:55:54;;;;;;;8.38;2.25;;;12.80;99.90;;;;;;4983919;28;20050;-81
2022/11/23 11:58:23;;;;;;;8.95;2.25;;;13.70;99.90;;;;;;4993232;28;20097;-81
2022/11/23 12:00:49;;;;;;;13.05;2.50;;;14.10;99.90;;;;;;4964542;28;20043;-82
2022/11/23 12:03:38;;;;;;;12.95;2.67;;;14.60;99.90;;;;;;4981929;28;20046;-82
2022/11/23 12:06:28;;;;;;;14.75;3.03;;;14.90;99.90;;;;;;4983666;28;20070;-82
2022/11/23 12:09:02;;;;;;;9.50;2.00;;;15.30;99.90;;;;;;4976595;28;20042;-82
2022/11/23 12:11:27;;;;;;;9.98;2.15;;;15.60;99.90;;;;;;4993285;28;20089;-82
2022/11/23 12:14:00;;;;;;;11.73;2.92;;;15.50;99.90;;;;;;4993690;28;20070;-82
2022/11/23 12:16:44;;;;;;;8.93;2.03;;;15.90;99.90;;;;;;4988194;28;20093;-82
2022/11/23 12:19:30;;;;;;;10.40;2.30;;;16.10;99.90;;;;;;4977556;28;20081;-82
2022/11/23 12:22:11;;;;;;;11.48;2.40;;;16.40;99.90;;;;;;4971482;28;20050;-82
2022/11/23 12:25:01;;;;;;;8.65;2.15;;;16.50;99.90;;;;;;4987107;28;20072;-82
2022/11/23 12:27:47;;;;;;;9.70;2.15;;;16.40;99.90;;;;;;4974394;28;20053;-82
2022/11/23 12:30:21;;;;;;;9.10;2.40;;;16.50;99.90;;;;;;4983119;28;20089;-81
2022/11/23 12:33:19;;;;;;;7.97;1.88;;;16.50;99.90;;;;;;4992398;28;20113;-81
2022/11/23 12:35:44;;;;;;;9.07;1.90;;;16.60;99.90;;;;;;4966674;28;20089;-82
2022/11/23 12:38:33;;;;;;;7.30;1.98;;;16.10;99.90;;;;;;4990323;28;20043;-83
2022/11/23 12:41:08;;;;;;;7.03;1.92;;;15.50;99.90;;;;;;4964792;28;20635;-83
2022/11/23 12:43:52;;;;;;;9.13;2.25;;;14.80;99.90;;;;;;4991946;28;20097;-82
2022/11/23 12:46:45;;;;;;;6.40;1.90;;;14.20;99.90;;;;;;4974700;28;20042;-82
2022/11/23 12:49:32;;;;;;;8.27;1.98;;;13.70;99.90;;;;;;4990753;28;20038;-82
2022/11/23 12:52:16;;;;;;;10.05;1.95;;;13.40;99.90;;;;;;4983221;28;20046;-76
2022/11/23 12:55:01;;;;;;;12.65;1.83;;;13.00;99.90;;;;;;4973745;28;20046;-76
2022/11/23 12:57:40;;;;;;;8.88;1.90;;;12.90;99.90;;;;;;4971779;28;20100;-76
2022/11/23 13:00:18;;;;;;;9.75;1.40;;;12.60;99.90;;;;;;4964347;28;20050;-76